Main page
METAR-TAF:

METAR-TAF

Airports :

London-Southend, England

London Southend Airport

latitude: 51-34N, longitude: 000-42E, elevation: 15 m

Current weather observation

The report was made 14 minutes ago, at 10:50 UTC
Wind 14 kt from the West/Southwest with gusts up to 24 kt
Temperature 11°C
Humidity 54%
Pressure 998 hPa
Visibility 10 km or more
Few clouds at a height of 3800 ft

METAR: EGMC 231050Z 25014G24KT 9999 FEW038 11/02 Q0998

Time: 11:04 (11:04 UTC)

Forecast

The report was made 1 hour and 43 minutes ago, at 09:21 UTC
Forecast valid from 23 at 09 UTC to 23 at 18 UTC
Wind 15 kt from the West/Southwest
Visibility: 7000 m
Scattered clouds at a height of 2500 ft
Becoming
from 23 at 09 UTC to 23 at 11 UTC
Visibility 10 km or more
Temporary
from 23 at 09 UTC to 23 at 16 UTC
Wind 18 kt from the West/Southwest with gusts up to 28 kt

TAF: EGMC 230921Z 2309/2318 24015KT 7000 SCT025 BECMG 2309/2311 9999 TEMPO 2309/2316 25018G28KT

Weather observations and forecasts of more than 4000 airports (METAR and TAF reports).

The available stations are represented by yellow and red dots on the map.

Hover mouse over dot to see the name of the station.

Then click to see weather observations and forecasts.

To change the map : click on the green buttons with a black cross to zoom in, on the green button with a dash to zoom out, or on the green arrows for adjacent maps.


METAR-TAF: